Time;durP1;ratioP1;P1;durP2;ratioP2;P2;SDS_P1;SDS_P2;PMS_P1;PMS_P2;Temp;Humidity;BMP_temperature;BMP_pressure;BME280_temperature;BME280_humidity;BME280_pressure;Samples;Min_cycle;Max_cycle;Signal;HPM_P1;HPM_P2
2023/10/04 00:00:15;;;;;;;10.13;2.72;;;14.20;99.90;;;14.80;68.79;101420.56;4940163;28;20055;-84
2023/10/04 00:02:45;;;;;;;10.55;3.00;;;14.20;99.90;;;14.77;68.98;101437.09;4937967;29;20067;-84
2023/10/04 00:05:16;;;;;;;13.18;3.20;;;14.20;99.90;;;14.75;68.91;101433.81;4937967;29;20048;-85
2023/10/04 00:07:47;;;;;;;10.60;2.80;;;14.20;99.90;;;14.77;69.01;101445.16;4940283;28;20054;-84
2023/10/04 00:10:16;;;;;;;8.23;2.92;;;14.20;99.90;;;14.79;69.06;101455.69;4954264;28;20515;-84
2023/10/04 00:12:44;;;;;;;10.00;3.33;;;14.20;99.90;;;14.75;69.03;101449.94;4906399;29;20052;-84
2023/10/04 00:15:13;;;;;;;10.45;2.80;;;14.20;99.90;;;14.75;68.98;101451.78;4970181;28;20039;-84
2023/10/04 00:17:42;;;;;;;6.18;2.65;;;14.20;99.90;;;14.77;69.33;101449.72;4957939;28;20059;-84
2023/10/04 00:20:13;;;;;;;9.57;3.08;;;14.20;99.90;;;14.75;69.08;101463.34;4956712;28;20036;-84
2023/10/04 00:22:42;;;;;;;7.07;3.15;;;14.20;99.90;;;14.71;69.01;101459.44;4931923;29;20103;-84
2023/10/04 00:25:16;;;;;;;10.20;2.83;;;14.10;99.90;;;14.69;68.92;101458.84;4942700;29;20035;-84
2023/10/04 00:27:45;;;;;;;10.98;3.05;;;14.10;99.90;;;14.69;69.19;101450.78;4972857;28;20052;-84
2023/10/04 00:30:17;;;;;;;9.15;2.88;;;14.10;99.90;;;14.69;68.99;101450.78;4957852;28;20050;-84
2023/10/04 00:32:46;;;;;;;9.33;2.93;;;14.10;99.90;;;14.62;69.69;101453.50;4974278;28;20050;-85
2023/10/04 00:35:17;;;;;;;8.85;3.20;;;14.10;99.90;;;14.65;69.48;101458.44;4943023;29;20043;-85
2023/10/04 00:37:45;;;;;;;;;;;14.10;99.90;;;14.67;69.48;101459.03;4942822;29;20119;-84
2023/10/04 00:40:21;;;;;;;9.38;2.90;;;14.10;99.90;;;14.66;69.67;101459.28;4943267;29;19927;-83
2023/10/04 00:42:54;;;;;;;8.77;2.67;;;14.10;99.90;;;14.64;69.61;101464.84;4925102;29;20059;-84
2023/10/04 00:45:22;;;;;;;11.75;2.60;;;14.10;99.90;;;14.66;69.32;101460.09;4940023;29;20090;-84
2023/10/04 00:47:57;;;;;;;7.78;2.50;;;14.10;99.90;;;14.65;69.37;101460.31;4973077;28;20070;-83
2023/10/04 00:50:29;;;;;;;13.32;2.95;;;14.10;99.90;;;14.65;69.58;101460.31;4942157;29;20048;-84
2023/10/04 00:53:05;;;;;;;11.35;3.33;;;14.10;99.90;;;14.65;69.49;101463.81;4958840;28;20048;-84
2023/10/04 00:55:40;;;;;;;9.77;2.83;;;14.10;99.90;;;14.63;69.55;101465.06;4943817;29;20035;-84
2023/10/04 00:58:09;;;;;;;11.20;2.88;;;14.10;99.90;;;14.61;69.37;101465.28;4957794;29;20048;-84
2023/10/04 01:00:38;;;;;;;9.07;2.80;;;14.00;99.90;;;14.59;69.49;101461.13;4942234;29;20095;-84
2023/10/04 01:03:07;;;;;;;10.50;3.08;;;14.00;99.90;;;14.60;69.59;101457.44;4942606;28;20074;-85
2023/10/04 01:05:47;;;;;;;9.32;3.28;;;14.00;99.90;;;14.60;69.86;101469.00;4955523;28;20044;-84
2023/10/04 01:08:20;;;;;;;9.80;2.22;;;14.00;99.90;;;14.60;69.87;101469.00;4923265;29;20107;-84
2023/10/04 01:10:50;;;;;;;7.07;2.72;;;14.00;99.90;;;14.60;69.48;101478.91;4966628;28;20146;-84
2023/10/04 01:13:21;;;;;;;11.77;3.57;;;14.00;99.90;;;14.59;69.32;101478.09;4942343;29;20062;-84
2023/10/04 01:15:53;;;;;;;7.95;3.00;;;14.00;99.90;;;14.48;69.79;101469.88;4943158;29;20317;-84
2023/10/04 01:18:21;;;;;;;9.20;2.78;;;13.90;99.90;;;14.51;69.87;101464.91;4943858;29;20123;-84
2023/10/04 01:20:49;;;;;;;7.78;2.50;;;13.90;99.90;;;14.53;69.93;101452.09;4960794;29;20067;-84
2023/10/04 01:23:19;;;;;;;12.68;3.10;;;13.90;99.90;;;14.52;69.89;101457.69;4944596;29;20056;-83
2023/10/04 01:25:48;;;;;;;9.80;3.40;;;14.00;99.90;;;14.51;69.81;101464.91;4946181;29;20040;-84
2023/10/04 01:28:26;;;;;;;11.95;2.78;;;13.90;99.90;;;14.51;69.92;101462.22;4961021;28;20056;-84
2023/10/04 01:30:56;;;;;;;8.60;2.92;;;13.90;99.90;;;14.50;69.76;101463.25;4976961;28;20044;-84
2023/10/04 01:33:24;;;;;;;9.60;2.80;;;13.90;99.90;;;14.44;69.93;101474.78;4961795;28;20496;-84
2023/10/04 01:35:54;;;;;;;7.63;2.40;;;13.90;99.90;;;14.43;70.12;101468.59;4944868;29;20043;-84
2023/10/04 01:38:25;;;;;;;10.65;2.95;;;13.90;99.90;;;14.45;70.42;101476.47;4978380;28;20082;-84
2023/10/04 01:40:54;;;;;;;9.63;2.42;;;13.90;99.90;;;14.47;70.39;101489.66;4976990;28;20047;-84
2023/10/04 01:43:24;;;;;;;11.45;3.05;;;13.90;99.90;;;14.44;70.54;101482.84;4940495;29;20062;-83
2023/10/04 01:45:57;;;;;;;10.05;2.85;;;13.90;99.90;;;14.46;70.60;101479.97;4922477;29;20076;-84
2023/10/04 01:48:26;;;;;;;14.25;2.75;;;13.90;99.90;;;14.49;70.67;101476.88;4919276;29;20071;-84
2023/10/04 01:50:56;;;;;;;6.85;2.55;;;13.90;99.90;;;14.50;70.26;101484.75;4940489;28;20070;-84
2023/10/04 01:53:26;;;;;;;12.75;2.80;;;14.00;99.90;;;14.51;70.39;101482.88;4941670;29;20039;-84
2023/10/04 01:55:56;;;;;;;15.82;3.67;;;13.90;99.90;;;14.48;70.52;101481.44;4953512;29;20035;-84
2023/10/04 01:58:25;;;;;;;9.80;2.78;;;13.90;99.90;;;14.42;70.70;101477.69;4939425;29;20055;-84
2023/10/04 02:00:53;;;;;;;12.00;2.95;;;13.90;99.90;;;14.43;70.48;101482.03;4952461;28;20487;-83
2023/10/04 02:03:21;;;;;;;13.63;3.13;;;13.90;99.90;;;14.42;70.83;101475.03;4950001;28;20523;-84
2023/10/04 02:05:50;;;;;;;8.68;2.97;;;13.90;99.90;;;14.43;70.75;101479.34;4950636;28;20464;-84
2023/10/04 02:08:18;;;;;;;12.35;3.03;;;13.90;99.90;;;14.34;71.50;101477.94;4934520;29;20052;-84
2023/10/04 02:10:47;;;;;;;12.43;2.80;;;13.90;99.90;;;14.33;71.82;101464.72;4919761;29;20079;-83
2023/10/04 02:13:15;;;;;;;9.88;2.50;;;13.90;99.90;;;14.35;71.76;101476.09;4953486;28;20135;-86
2023/10/04 02:15:50;;;;;;;9.77;2.55;;;13.90;99.90;;;14.38;71.67;101481.84;4937769;29;20083;-86
2023/10/04 02:18:19;;;;;;;10.48;2.90;;;13.90;99.90;;;14.39;71.58;101486.16;4953309;28;20058;-83
2023/10/04 02:20:48;;;;;;;9.25;2.80;;;13.90;99.90;;;14.41;71.84;101485.97;4953011;28;20070;-83
2023/10/04 02:23:18;;;;;;;14.18;3.03;;;13.90;99.90;;;14.41;71.62;101486.78;4948217;29;20084;-83
2023/10/04 02:25:48;;;;;;;10.67;3.03;;;13.90;99.90;;;14.40;71.52;101485.16;4934291;29;20138;-84
2023/10/04 02:28:22;;;;;;;10.82;2.67;;;13.90;99.90;;;14.44;71.65;101482.84;4917967;29;20524;-84
2023/10/04 02:30:54;;;;;;;12.00;2.92;;;13.90;99.90;;;14.45;71.50;101481.03;4921476;29;20424;-83
2023/10/04 02:33:21;;;;;;;10.02;3.13;;;13.90;99.90;;;14.42;71.69;101474.19;4953541;28;20069;-83
2023/10/04 02:35:50;;;;;;;9.07;2.65;;;13.90;99.90;;;14.35;71.83;101482.28;4937024;29;20160;-84
2023/10/04 02:38:23;;;;;;;10.07;2.65;;;13.90;99.90;;;14.38;72.04;101481.84;4953248;28;20603;-84
2023/10/04 02:40:52;;;;;;;12.25;2.60;;;13.90;99.90;;;14.38;72.03;101486.38;4968015;28;20046;-84
2023/10/04 02:43:21;;;;;;;10.10;3.30;;;13.90;99.90;;;14.40;72.16;101490.53;4949327;29;20044;-83
2023/10/04 02:45:50;;;;;;;9.80;2.72;;;13.90;99.90;;;14.39;71.79;101485.34;4952374;28;20039;-83
2023/10/04 02:48:19;;;;;;;15.25;3.03;;;13.90;99.90;;;14.34;72.19;101485.16;4937131;29;20048;-83
2023/10/04 02:50:48;;;;;;;10.75;2.60;;;13.90;99.90;;;14.34;72.53;101477.94;4967701;28;20138;-83
2023/10/04 02:53:25;;;;;;;12.73;3.42;;;13.90;99.90;;;14.36;72.55;101489.28;4938313;29;20051;-84
2023/10/04 02:55:57;;;;;;;9.48;2.97;;;14.00;99.90;;;14.39;72.58;101486.16;4953145;28;20051;-84
2023/10/04 02:58:29;;;;;;;15.13;3.38;;;14.00;99.90;;;14.40;72.61;101477.09;4952399;28;20118;-84
2023/10/04 03:00:57;;;;;;;12.35;3.42;;;14.00;99.90;;;14.36;72.47;101475.88;4935994;29;20571;-84
2023/10/04 03:03:25;;;;;;;10.40;2.72;;;14.00;99.90;;;14.40;72.90;101477.09;4951703;28;20082;-83
2023/10/04 03:05:57;;;;;;;10.05;2.70;;;14.00;99.90;;;14.45;72.78;101473.78;4952605;28;20099;-84
2023/10/04 03:08:27;;;;;;;11.10;3.10;;;14.00;99.90;;;14.44;72.48;101474.78;4967787;28;20135;-83
2023/10/04 03:10:57;;;;;;;12.40;3.20;;;14.00;99.90;;;14.46;72.79;101477.28;4920326;29;20066;-83
2023/10/04 03:13:27;;;;;;;10.82;2.42;;;14.10;99.90;;;14.47;73.03;101479.75;4938023;29;20039;-83
2023/10/04 03:16:01;;;;;;;13.32;3.67;;;14.10;99.90;;;14.48;73.06;101494.03;4952219;28;20078;-84
2023/10/04 03:18:29;;;;;;;11.00;2.67;;;14.10;99.90;;;14.49;73.00;101484.94;4951348;28;20142;-84
2023/10/04 03:21:10;;;;;;;8.70;2.38;;;14.10;99.90;;;14.48;73.09;101486.78;4920134;29;20098;-83
2023/10/04 03:23:44;;;;;;;12.02;3.10;;;14.10;99.90;;;14.48;73.03;101485.97;4951587;28;20146;-83
2023/10/04 03:26:18;;;;;;;10.48;3.20;;;14.10;99.90;;;14.48;73.18;101484.09;4952799;28;20069;-84
2023/10/04 03:28:51;;;;;;;11.50;2.88;;;14.10;99.90;;;14.42;73.42;101488.44;4952056;28;20062;-84
2023/10/04 03:31:23;;;;;;;9.68;2.88;;;14.00;99.90;;;14.45;73.32;101487.22;4950855;28;20482;-83
2023/10/04 03:33:55;;;;;;;10.48;2.72;;;14.10;99.90;;;14.46;73.61;101483.47;4967931;28;20047;-84
2023/10/04 03:36:29;;;;;;;16.75;2.63;;;14.10;99.90;;;14.49;73.39;101490.28;4952195;28;20075;-84
2023/10/04 03:39:03;;;;;;;12.48;3.08;;;14.10;99.90;;;14.50;73.35;101489.28;4937453;29;20863;-83
2023/10/04 03:41:35;;;;;;;10.90;2.85;;;14.10;99.90;;;14.50;73.39;101492.78;4938549;29;20054;-84
2023/10/04 03:44:08;;;;;;;8.60;2.40;;;14.10;99.90;;;14.52;73.36;101498.75;4934380;29;20142;-84
2023/10/04 03:46:43;;;;;;;8.82;2.83;;;14.10;99.90;;;14.50;73.31;101494.66;4935380;29;20047;-84
2023/10/04 03:49:12;;;;;;;8.85;2.75;;;14.10;99.90;;;14.52;73.08;101497.94;4953461;29;20047;-84
2023/10/04 03:51:41;;;;;;;7.72;2.45;;;14.10;99.90;;;14.52;73.07;101506.81;4922115;29;20074;-84
2023/10/04 03:54:13;;;;;;;12.52;3.00;;;14.10;99.90;;;14.50;73.18;101502.72;4937861;29;20063;-83
2023/10/04 03:56:46;;;;;;;9.27;2.60;;;14.10;99.90;;;14.48;73.14;101500.22;4954530;28;20395;-83
2023/10/04 03:59:13;;;;;;;7.15;2.65;;;14.10;99.90;;;14.46;73.18;101509.50;4954091;29;20519;-83
2023/10/04 04:01:44;;;;;;;12.33;3.30;;;14.00;99.90;;;14.39;73.41;101507.63;4938979;29;20051;-84
2023/10/04 04:04:17;;;;;;;15.95;3.30;;;14.00;99.90;;;14.37;73.46;101496.31;4937220;29;20151;-83
2023/10/04 04:06:45;;;;;;;12.82;2.85;;;14.00;99.90;;;14.37;73.58;101492.78;4953302;28;20043;-84
2023/10/04 04:09:13;;;;;;;10.50;2.50;;;14.00;99.90;;;14.38;73.95;101495.25;4933524;29;20526;-84
2023/10/04 04:11:42;;;;;;;7.50;2.70;;;14.00;99.90;;;14.42;73.52;101493.81;4934630;28;20468;-84
2023/10/04 04:14:10;;;;;;;15.15;3.10;;;14.00;99.90;;;14.45;73.46;101499.81;4935552;29;20471;-84
2023/10/04 04:16:38;;;;;;;9.82;2.83;;;14.00;99.90;;;14.40;73.42;101503.94;4951351;28;20423;-84
2023/10/04 04:19:06;;;;;;;8.80;2.30;;;14.00;99.90;;;14.38;73.31;101502.50;4937214;28;20052;-84
2023/10/04 04:21:35;;;;;;;11.40;3.28;;;14.00;99.90;;;14.38;73.49;101506.00;4951111;28;20051;-84
2023/10/04 04:24:04;;;;;;;17.05;3.65;;;14.00;99.90;;;14.40;73.40;101500.44;4950691;28;20143;-83
2023/10/04 04:26:33;;;;;;;10.98;2.72;;;14.00;99.90;;;14.41;73.17;101507.44;4919296;29;20048;-84
2023/10/04 04:29:02;;;;;;;11.35;2.80;;;14.00;99.90;;;14.41;73.18;101508.25;4950043;29;20404;-83
2023/10/04 04:31:30;;;;;;;10.88;2.80;;;14.00;99.90;;;14.41;73.18;101500.22;4950453;28;20103;-83
2023/10/04 04:33:58;;;;;;;9.15;2.70;;;14.00;99.90;;;14.38;73.01;101506.00;4951277;29;20431;-84
2023/10/04 04:36:27;;;;;;;11.00;2.53;;;13.90;99.90;;;14.35;73.03;101514.50;4967266;28;20051;-84
2023/10/04 04:38:56;;;;;;;10.70;2.95;;;13.90;99.90;;;14.35;73.17;101510.97;4951545;28;20051;-84
2023/10/04 04:41:26;;;;;;;12.52;2.88;;;13.90;99.90;;;14.35;72.79;101519.84;4934608;29;20412;-83
2023/10/04 04:43:55;;;;;;;10.70;2.72;;;13.90;99.90;;;14.34;73.02;101523.53;4950649;28;20139;-83
2023/10/04 04:46:25;;;;;;;10.73;2.53;;;13.90;99.90;;;14.34;72.92;101523.53;4936599;28;20103;-84
2023/10/04 04:48:55;;;;;;;12.30;2.42;;;13.90;99.90;;;14.31;72.45;101518.63;4951012;29;20043;-84
2023/10/04 04:51:23;;;;;;;12.87;2.60;;;13.90;99.90;;;14.30;72.59;101521.50;4950663;28;20062;-83
2023/10/04 04:53:58;;;;;;;12.77;2.58;;;13.80;99.90;;;14.28;72.74;101519.03;4951659;28;20055;-84
2023/10/04 04:56:29;;;;;;;13.15;2.90;;;13.80;99.90;;;14.28;72.75;101508.28;4951262;28;20055;-84
2023/10/04 04:59:07;;;;;;;13.88;2.75;;;13.80;99.90;;;14.26;72.55;101510.38;4935864;29;20460;-84
2023/10/04 05:01:39;;;;;;;10.60;2.22;;;13.80;99.90;;;14.22;72.76;101508.31;4905025;29;20071;-83
2023/10/04 05:04:10;;;;;;;12.23;2.72;;;13.80;99.90;;;14.12;72.89;101498.03;4937804;29;20468;-84
2023/10/04 05:06:39;;;;;;;12.90;2.85;;;13.70;99.90;;;14.11;73.40;101507.94;4938429;29;20134;-84
2023/10/04 05:09:10;;;;;;;12.85;2.60;;;13.70;99.90;;;14.15;73.12;101508.31;4938787;29;20526;-83
2023/10/04 05:11:38;;;;;;;11.30;2.35;;;13.80;99.90;;;14.15;73.11;101500.25;4955170;28;20139;-83
2023/10/04 05:14:06;;;;;;;14.20;2.60;;;13.70;99.90;;;14.15;73.13;101502.94;4939362;29;20040;-83
2023/10/04 05:16:35;;;;;;;11.77;2.22;;;13.70;99.90;;;14.16;72.85;101509.97;4939986;28;20040;-83
2023/10/04 05:19:04;;;;;;;10.70;2.40;;;13.70;99.90;;;14.14;72.79;101512.03;4938050;28;20071;-83
2023/10/04 05:21:31;;;;;;;13.95;2.83;;;13.70;99.90;;;14.14;72.88;101506.66;4937553;29;20047;-83
2023/10/04 05:23:59;;;;;;;13.40;2.92;;;13.70;99.90;;;14.13;72.76;101515.75;4938925;29;20051;-83
2023/10/04 05:26:27;;;;;;;12.07;3.25;;;13.70;99.90;;;14.12;72.75;101514.13;4969756;28;20134;-84
2023/10/04 05:28:55;;;;;;;11.57;2.80;;;13.70;99.90;;;14.11;72.71;101518.66;4939189;29;20054;-84
2023/10/04 05:31:23;;;;;;;12.95;2.80;;;13.60;99.90;;;14.12;72.65;101508.75;4917781;29;20076;-83
2023/10/04 05:33:54;;;;;;;12.77;3.40;;;13.70;99.90;;;14.09;72.45;101519.88;4919159;29;20103;-83
2023/10/04 05:36:22;;;;;;;11.77;2.60;;;13.60;99.90;;;14.03;72.82;101516.19;4919471;29;20131;-83
2023/10/04 05:38:49;;;;;;;12.77;2.80;;;13.60;99.90;;;14.05;72.96;101514.09;4947531;29;20844;-83
2023/10/04 05:41:18;;;;;;;9.43;3.13;;;13.60;99.90;;;14.04;72.87;101517.81;4939027;29;20040;-84
2023/10/04 05:43:46;;;;;;;14.18;3.22;;;13.60;99.90;;;14.04;72.89;101511.63;4938924;29;20047;-84
2023/10/04 05:46:14;;;;;;;13.32;2.97;;;13.60;99.90;;;14.01;73.04;101520.13;4939225;29;20035;-84
2023/10/04 05:48:42;;;;;;;10.98;2.85;;;13.50;99.90;;;13.99;73.08;101524.84;4953222;28;20423;-83
2023/10/04 05:51:12;;;;;;;11.65;2.72;;;13.50;99.90;;;13.95;73.10;101520.94;4936875;29;20047;-83
2023/10/04 05:53:39;;;;;;;12.75;2.97;;;13.50;99.90;;;13.97;73.29;101518.88;4953760;28;20055;-83
2023/10/04 05:56:09;;;;;;;12.25;3.30;;;13.50;99.90;;;13.99;73.18;101530.22;4939124;29;20040;-84
2023/10/04 05:58:37;;;;;;;10.30;3.03;;;13.60;99.90;;;13.99;73.24;101527.53;4937376;29;20043;-84
2023/10/04 06:01:06;;;;;;;11.82;3.28;;;13.60;99.90;;;13.99;73.12;101535.59;4934191;29;20478;-83
2023/10/04 06:03:35;;;;;;;13.60;3.10;;;13.60;99.90;;;13.99;72.96;101549.00;4933769;29;20134;-83
2023/10/04 06:06:03;;;;;;;11.55;3.08;;;13.60;99.90;;;14.01;73.04;101555.00;4938267;29;20063;-84
2023/10/04 06:08:33;;;;;;;10.48;2.95;;;13.60;99.90;;;14.03;73.21;101550.22;4937454;29;20048;-84
2023/10/04 06:11:04;;;;;;;10.63;3.53;;;13.60;99.90;;;13.99;73.23;101557.84;4970056;28;20060;-84
2023/10/04 06:13:31;;;;;;;9.35;3.10;;;13.60;99.90;;;13.98;73.38;101558.91;4936545;29;20089;-84
2023/10/04 06:16:00;;;;;;;10.57;3.20;;;13.60;99.90;;;14.02;73.32;101562.00;4937727;28;20051;-85
2023/10/04 06:18:29;;;;;;;8.88;3.20;;;13.60;99.90;;;14.04;73.14;101570.66;4938572;29;20047;-84
2023/10/04 06:20:56;;;;;;;13.38;3.30;;;13.60;99.90;;;13.93;73.58;101588.19;4953551;28;20554;-84
2023/10/04 06:23:24;;;;;;;14.50;3.13;;;13.60;99.90;;;13.96;73.45;101585.13;4935010;29;20056;-84
2023/10/04 06:25:53;;;;;;;15.13;3.38;;;13.60;99.90;;;13.99;73.85;101573.94;4938153;28;20051;-84
2023/10/04 06:28:21;;;;;;;15.85;2.90;;;13.60;99.90;;;13.99;73.64;101568.59;4951555;28;20566;-84
2023/10/04 06:30:49;;;;;;;14.73;3.28;;;13.60;99.90;;;14.01;73.71;101576.44;4937461;28;20090;-84
2023/10/04 06:33:17;;;;;;;14.13;3.08;;;13.60;99.90;;;14.02;73.55;101581.59;4937413;29;20150;-84
2023/10/04 06:35:46;;;;;;;14.05;3.70;;;13.70;99.90;;;13.97;73.89;101580.56;4937064;29;20040;-85
2023/10/04 06:38:15;;;;;;;10.35;3.10;;;13.60;99.90;;;14.03;73.98;101585.09;4936472;29;20047;-85
2023/10/04 06:40:43;;;;;;;17.95;3.63;;;13.70;99.90;;;14.06;73.98;101592.75;4937483;29;20079;-85
2023/10/04 06:43:14;;;;;;;12.20;3.03;;;13.70;99.90;;;14.08;74.12;101604.09;4936715;28;20051;-84
2023/10/04 06:45:42;;;;;;;12.95;3.45;;;13.70;99.90;;;14.07;74.01;101597.91;4937562;29;20072;-85
2023/10/04 06:48:12;;;;;;;15.35;3.13;;;13.70;99.90;;;14.11;73.81;101592.94;4936156;28;20447;-84
2023/10/04 06:50:40;;;;;;;15.17;3.57;;;13.80;99.90;;;14.11;74.06;101603.69;4937046;29;20058;-84
2023/10/04 06:53:08;;;;;;;17.15;3.38;;;13.80;99.90;;;14.09;74.33;101611.91;4968672;28;20472;-84
2023/10/04 06:55:37;;;;;;;15.82;3.85;;;13.80;99.90;;;14.13;74.19;101609.66;4937496;29;20516;-84
2023/10/04 06:58:06;;;;;;;15.75;3.38;;;13.80;99.90;;;14.12;74.21;101608.84;4916460;29;20158;-84
2023/10/04 07:00:37;;;;;;;13.57;3.53;;;13.80;99.90;;;14.10;74.55;101618.09;4950895;29;20130;-85
2023/10/04 07:03:05;;;;;;;11.40;3.40;;;13.80;99.90;;;14.13;74.34;101615.84;4920396;28;20103;-84
2023/10/04 07:05:36;;;;;;;13.23;3.22;;;13.90;99.90;;;14.17;74.67;101619.78;4938018;29;20039;-85
2023/10/04 07:08:06;;;;;;;13.75;3.28;;;13.90;99.90;;;14.23;74.54;101623.47;4951092;28;20078;-84
2023/10/04 07:10:36;;;;;;;19.87;4.00;;;13.90;99.90;;;14.24;74.57;101624.31;4919257;29;20041;-85
2023/10/04 07:13:06;;;;;;;16.80;3.40;;;14.00;99.90;;;14.22;74.53;101627.19;4917946;29;20728;-85
2023/10/04 07:15:39;;;;;;;13.52;3.38;;;14.00;99.90;;;14.27;74.80;101640.00;4905693;29;20079;-84
2023/10/04 07:18:09;;;;;;;10.90;3.40;;;14.00;99.90;;;14.21;74.76;101633.59;4936202;29;20044;-84
2023/10/04 07:20:38;;;;;;;12.60;3.08;;;14.00;99.90;;;14.27;74.74;101640.81;4950058;28;20476;-84
2023/10/04 07:23:09;;;;;;;15.80;3.55;;;14.10;99.90;;;14.25;74.78;101631.31;4935236;29;20055;-85
2023/10/04 07:25:41;;;;;;;15.45;3.85;;;14.10;99.90;;;14.30;74.93;101635.06;4935850;29;20395;-85
2023/10/04 07:28:11;;;;;;;11.85;3.38;;;14.10;99.90;;;14.32;75.05;101632.97;4937244;29;20048;-84
2023/10/04 07:30:41;;;;;;;19.08;4.40;;;14.10;99.90;;;14.37;75.12;101635.84;4935738;29;20426;-85
2023/10/04 07:33:09;;;;;;;17.70;4.60;;;14.20;99.90;;;14.32;74.91;101641.03;4968811;28;20047;-85
2023/10/04 07:35:38;;;;;;;14.40;4.18;;;14.20;99.90;;;14.30;75.05;101648.47;4936512;28;20071;-84
2023/10/04 07:38:06;;;;;;;18.60;4.07;;;14.20;99.90;;;14.40;75.17;101646.19;4935919;29;20455;-85
2023/10/04 07:40:35;;;;;;;14.40;4.07;;;14.30;99.90;;;14.43;75.06;101653.81;4953683;28;20442;-84
2023/10/04 07:43:02;;;;;;;16.88;3.78;;;14.30;99.90;;;14.49;75.11;101657.56;4923941;29;20451;-85
2023/10/04 07:45:31;;;;;;;13.15;3.85;;;14.40;99.90;;;14.50;75.19;101659.22;4937257;29;20056;-85
2023/10/04 07:48:00;;;;;;;18.10;4.47;;;14.40;99.90;;;14.56;75.25;101661.06;4938625;29;20380;-85
2023/10/04 07:50:32;;;;;;;17.23;4.25;;;14.40;99.90;;;14.51;75.31;101666.25;4936993;29;20495;-85
2023/10/04 07:53:04;;;;;;;22.52;5.43;;;14.50;99.90;;;14.50;75.03;101656.53;4945293;29;20499;-85
2023/10/04 07:55:33;;;;;;;13.88;3.50;;;14.50;99.90;;;14.50;76.18;101655.72;4973429;28;20043;-85
2023/10/04 07:58:03;;;;;;;16.00;3.95;;;14.50;99.90;;;14.58;75.42;101652.81;4940498;29;20051;-85
2023/10/04 08:00:36;;;;;;;17.83;3.83;;;14.60;99.90;;;14.58;75.61;101660.84;4989301;28;20105;-85
2023/10/04 08:03:09;;;;;;;16.20;4.32;;;14.60;99.90;;;14.60;75.63;101656.94;4971128;28;20066;-85
2023/10/04 08:05:39;;;;;;;17.15;4.10;;;14.60;99.90;;;14.75;75.53;101658.56;4938764;29;20048;-85
2023/10/04 08:08:07;;;;;;;17.98;4.00;;;14.70;99.90;;;14.73;75.54;101649.88;4939087;29;20522;-85
2023/10/04 08:10:36;;;;;;;14.23;3.95;;;14.70;99.90;;;14.75;75.30;101656.72;4936137;29;20505;-84
2023/10/04 08:13:05;;;;;;;18.38;4.32;;;14.80;99.90;;;14.76;75.26;101668.28;4941241;28;20177;-84
2023/10/04 08:15:35;;;;;;;13.48;4.82;;;14.80;99.90;;;14.79;75.45;101667.88;4935975;29;20123;-84
2023/10/04 08:18:04;;;;;;;23.30;4.50;;;14.80;99.90;;;14.78;75.45;101669.69;4934511;29;20142;-84
2023/10/04 08:20:32;;;;;;;16.88;4.55;;;14.80;99.90;;;14.86;76.07;101665.97;4935380;29;20098;-85
2023/10/04 08:23:02;;;;;;;14.50;4.00;;;14.90;99.90;;;14.88;75.84;101663.91;4935689;29;20036;-85
2023/10/04 08:25:31;;;;;;;23.13;5.25;;;15.00;99.90;;;14.91;75.57;101664.31;4939646;28;20048;-84
2023/10/04 08:28:00;;;;;;;15.48;4.28;;;15.00;99.90;;;14.93;76.02;101656.88;4936437;29;20410;-84
2023/10/04 08:30:30;;;;;;;24.65;4.90;;;15.10;99.90;;;14.94;75.32;101665.75;4919673;29;20471;-84
2023/10/04 08:32:59;;;;;;;14.52;4.63;;;15.10;99.90;;;14.89;74.93;101661.03;4941550;28;20095;-85
2023/10/04 08:35:28;;;;;;;13.95;3.83;;;15.10;99.90;;;14.93;75.25;101656.88;4936065;29;20527;-85
2023/10/04 08:37:58;;;;;;;17.42;4.95;;;15.10;99.90;;;15.01;75.32;101663.88;4938958;29;20115;-85
2023/10/04 08:40:30;;;;;;;16.85;5.15;;;15.20;99.90;;;15.07;74.73;101668.41;4944086;28;20071;-85
2023/10/04 08:42:59;;;;;;;18.00;5.75;;;15.20;99.90;;;15.11;74.69;101669.63;4911371;29;20043;-84
2023/10/04 08:45:29;;;;;;;18.02;5.43;;;15.30;99.90;;;15.14;74.54;101663.84;4940761;29;20059;-84
2023/10/04 08:47:57;;;;;;;16.27;4.90;;;15.30;99.90;;;15.15;74.10;101661.97;4942411;29;20047;-84
2023/10/04 08:50:49;;;;;;;13.20;4.30;;;15.30;99.90;;;15.20;74.56;101660.28;4965302;28;20059;-85
2023/10/04 08:53:35;;;;;;;18.20;4.70;;;15.40;99.90;;;15.29;75.51;101660.06;4946831;29;20043;-84
2023/10/04 08:56:11;;;;;;;15.48;4.47;;;15.50;99.90;;;15.33;75.25;101659.44;4944368;29;20052;-85
2023/10/04 08:58:41;;;;;;;19.90;4.75;;;15.50;99.90;;;15.40;75.32;101662.91;4940931;29;20456;-84
2023/10/04 09:01:09;;;;;;;15.57;4.63;;;15.60;99.90;;;15.40;74.46;101665.59;4923238;29;20134;-85
2023/10/04 09:03:37;;;;;;;15.60;4.63;;;15.60;99.90;;;15.45;75.04;101663.09;4940569;29;20048;-85
2023/10/04 09:06:10;;;;;;;21.83;4.78;;;15.60;99.90;;;15.47;74.50;101676.34;4941158;28;20135;-85
2023/10/04 09:08:40;;;;;;;17.08;4.38;;;15.70;99.90;;;15.53;74.73;101667.41;4939758;29;20047;-86
2023/10/04 09:11:11;;;;;;;18.40;4.50;;;15.70;99.90;;;15.62;75.00;101666.13;4939677;28;20082;-86
2023/10/04 09:13:47;;;;;;;16.10;4.68;;;15.80;99.90;;;15.66;74.18;101671.91;4939817;29;20048;-86
2023/10/04 09:16:24;;;;;;;14.68;4.70;;;15.90;99.90;;;15.65;73.52;101667.56;4969566;28;20134;-85
2023/10/04 09:19:07;;;;;;;17.55;5.10;;;15.90;99.90;;;15.65;74.41;101668.38;4969496;28;20404;-86
2023/10/04 09:21:38;;;;;;;18.55;5.70;;;15.80;99.90;;;15.66;74.42;101674.59;4938407;28;20047;-86
2023/10/04 09:24:09;;;;;;;;;;;15.80;99.90;;;15.68;74.31;101677.91;4938319;29;20054;-86
2023/10/04 09:26:39;;;;;;;21.73;4.72;;;15.80;99.90;;;15.70;75.10;101681.19;4938975;29;19929;-85
2023/10/04 09:29:07;;;;;;;21.10;4.90;;;15.90;99.90;;;15.72;74.53;101667.56;4939934;28;20147;-85
2023/10/04 09:31:53;;;;;;;17.63;4.70;;;15.90;99.90;;;15.79;75.12;101674.53;4938975;29;20098;-85
2023/10/04 09:34:22;;;;;;;15.65;3.90;;;16.00;99.90;;;15.83;74.92;101674.94;4940281;29;20406;-85
2023/10/04 09:36:55;;;;;;;21.08;4.30;;;16.00;99.90;;;15.86;74.20;101669.09;4937489;29;20036;-85
2023/10/04 09:39:24;;;;;;;14.32;3.90;;;16.10;99.90;;;15.88;73.51;101677.78;4921793;29;20058;-85
2023/10/04 09:41:57;;;;;;;16.25;4.20;;;16.10;99.90;;;15.93;73.60;101670.72;4937799;29;20090;-86
2023/10/04 09:44:27;;;;;;;19.83;4.00;;;16.10;99.90;;;15.96;73.15;101666.78;4937572;29;20062;-86
2023/10/04 09:47:00;;;;;;;11.90;3.93;;;16.20;99.90;;;15.99;73.75;101673.56;4940316;28;20534;-85
2023/10/04 09:49:31;;;;;;;11.57;3.20;;;16.20;99.90;;;16.02;73.33;101673.16;4939768;29;20834;-85
2023/10/04 09:52:07;;;;;;;19.23;4.45;;;16.20;99.90;;;15.99;72.43;101662.81;4923160;29;20059;-85
2023/10/04 09:54:35;;;;;;;17.05;4.20;;;16.20;99.90;;;15.94;71.79;101664.28;4939232;29;20047;-85
2023/10/04 09:57:08;;;;;;;16.75;4.07;;;16.10;99.90;;;15.93;72.29;101667.19;4953589;29;20534;-86
2023/10/04 09:59:38;;;;;;;16.27;3.83;;;16.10;99.90;;;15.94;72.68;101671.53;4938817;29;20071;-86
2023/10/04 10:02:09;;;;;;;15.93;3.70;;;16.10;99.90;;;15.96;72.07;101675.66;4968484;28;20131;-87
2023/10/04 10:04:44;;;;;;;19.00;4.03;;;16.20;99.90;;;15.99;71.85;101679.78;4952966;29;20086;-88
2023/10/04 10:07:22;;;;;;;14.95;3.53;;;16.20;99.90;;;16.03;72.25;101680.19;4938406;28;20111;-88
2023/10/04 10:09:58;;;;;;;14.32;3.72;;;16.20;99.90;;;16.07;72.43;101684.91;4951849;29;20130;-87
2023/10/04 10:12:30;;;;;;;14.05;3.63;;;16.20;99.90;;;16.09;72.37;101676.59;4936629;29;20047;-87
2023/10/04 10:15:00;;;;;;;13.52;3.85;;;16.20;99.90;;;16.13;73.26;101677.81;4937540;29;20052;-88
2023/10/04 10:17:30;;;;;;;16.77;3.88;;;16.30;99.90;;;16.14;72.31;101679.47;4938850;29;20048;-88
2023/10/04 10:19:58;;;;;;;14.53;3.20;;;16.30;99.90;;;16.15;71.43;101681.97;4943241;28;20137;-84